Dai 8 Tokuharu — JD3710 — position and weather

sailwx.info

Track history (hours):
 
Tides and Currents Weather Stations Pressure Air Temp Water Temp Dewpoint Dewpoint Depression Visibility Wind Speed Wind Dir Waves Ship Positions

Dai 8 Tokuharu

Last reported at 2018-Feb-21 04:24 UTC. Time now 2018-Feb-21 17:32 UTC.
Position N 33°51' E 134°51'.

Length 82 m; draft 5 m.

Type: Cargo ship. MMSI: 431005534.

Date/timePositionNaut miles runAvg speedWind from/ knotsBaromVisibWave heightAir tempDewpointWater temp
2018-Feb-21 04:24N 33°51' E 134°51'612.5
2018-Feb-21 03:55N 33°57' E 134°53'512.0
2018-Feb-21 03:30N 34°02' E 134°54'611.7
2018-Feb-21 03:00N 34°08' E 134°55'611.6
2018-Feb-21 02:30N 34°13' E 134°57'510.5
2018-Feb-21 02:00N 34°18' E 134°59'611.1
2018-Feb-21 01:30N 34°23' E 135°02'611.6
2018-Feb-21 01:00N 34°27' E 135°07'612.0
2018-Feb-21 00:30N 34°32' E 135°12'611.7
2018-Feb-21 00:00N 34°36' E 135°17'3 6.9
2018-Feb-20 23:30N 34°39' E 135°19'0 0.0
2018-Feb-20 23:00N 34°39' E 135°19'0 0.0
2018-Feb-20 22:30N 34°39' E 135°19'0 0.0
2018-Feb-20 22:00N 34°39' E 135°19'4 7.8
2018-Feb-20 21:30N 34°37' E 135°15'611.9
2018-Feb-20 21:00N 34°36' E 135°08'612.5
2018-Feb-20 20:31N 34°37' E 135°01'713.9
2018-Feb-20 20:01N 34°38' E 134°52'5 9.7
2018-Feb-20 19:30N 34°43' E 134°50'0 0.0
2018-Feb-20 19:00N 34°43' E 134°50'0 0.0
2018-Feb-20 18:30N 34°43' E 134°50'0 0.0
2018-Feb-20 18:00N 34°43' E 134°50'0 0.0
2018-Feb-20 17:30N 34°43' E 134°50'0 0.0
2018-Feb-20 17:00N 34°43' E 134°50'0 0.0
2018-Feb-20 16:30N 34°43' E 134°50'0 0.0
2018-Feb-20 16:00N 34°43' E 134°50'0 0.0
2018-Feb-20 15:30N 34°43' E 134°50'0 0.0
2018-Feb-20 15:00N 34°43' E 134°50'0 0.0
2018-Feb-20 14:30N 34°43' E 134°50'1 1.3
2018-Feb-20 14:00N 34°42' E 134°50'510.6
2018-Feb-20 13:30N 34°37' E 134°53'713.4
2018-Feb-20 13:00N 34°37' E 135°02'510.5
2018-Feb-20 12:30N 34°32' E 135°04'612.1
2018-Feb-20 12:01N 34°27' E 135°03'612.0
2018-Feb-20 11:30N 34°21' E 135°01'611.6
2018-Feb-20 11:00N 34°15' E 134°59'510.9
2018-Feb-20 10:31N 34°10' E 134°58'611.6
2018-Feb-20 10:00N 34°04' E 134°57'611.3
2018-Feb-20 09:31N 33°59' E 134°55'611.5
2018-Feb-20 09:00N 33°53' E 134°53'510.6
2018-Feb-20 08:30N 33°49' E 134°49'4 0.1
2018-Feb-19 05:38N 33°52' E 134°51'212.8
2018-Feb-19 05:29N 33°53' E 134°52'612.7
2018-Feb-19 05:00N 33°59' E 134°54'612.5
2018-Feb-19 04:30N 34°05' E 134°55'612.6
2018-Feb-19 04:00N 34°12' E 134°57'611.9
2018-Feb-19 03:30N 34°17' E 134°58'510.5
2018-Feb-19 03:00N 34°22' E 134°60'611.5
2018-Feb-19 02:31N 34°28' E 135°02'611.1
2018-Feb-19 02:01N 34°33' E 135°03'4 7.6
2018-Feb-19 01:30N 34°37' E 135°01'5 9.7
2018-Feb-19 01:00N 34°35' E 134°55'510.1
2018-Feb-19 00:31N 34°39' E 134°51'4 7.0
2018-Feb-19 00:00N 34°43' E 134°50'0 0.0
2018-Feb-18 23:29N 34°43' E 134°50'0 0.0
2018-Feb-18 23:00N 34°43' E 134°50'0 0.0
2018-Feb-18 22:30N 34°43' E 134°50'0 0.0
2018-Feb-18 22:00N 34°43' E 134°50'0 0.0
2018-Feb-18 21:30N 34°43' E 134°50'0 0.0
2018-Feb-18 21:00N 34°43' E 134°50'0 0.0
2018-Feb-18 20:30N 34°43' E 134°50'0 0.0
2018-Feb-18 20:01N 34°43' E 134°50'0 0.0
2018-Feb-18 19:30N 34°43' E 134°50'0 0.0
2018-Feb-18 18:59N 34°43' E 134°50'0 0.0
2018-Feb-18 18:30N 34°43' E 134°50'0 0.0
2018-Feb-18 18:00N 34°43' E 134°50'1 2.3
2018-Feb-18 17:30N 34°41' E 134°50'4 8.8
2018-Feb-18 17:00N 34°38' E 134°53'5 9.5
2018-Feb-18 16:30N 34°38' E 134°59'510.1
2018-Feb-18 16:00N 34°36' E 135°04'510.2
2018-Feb-18 15:30N 34°31' E 135°04'611.5
2018-Feb-18 15:00N 34°25' E 135°02'611.3
2018-Feb-18 14:31N 34°20' E 135°00'611.6
2018-Feb-18 14:01N 34°14' E 134°59'611.4
2018-Feb-18 13:30N 34°08' E 134°57'611.2
2018-Feb-18 13:00N 34°03' E 134°56'611.1
2018-Feb-18 12:30N 33°57' E 134°54'511.1
2018-Feb-18 12:00N 33°52' E 134°52'2 0.1
2018-Feb-17 16:56N 33°51' E 134°51'712.9
2018-Feb-17 16:22N 33°58' E 134°53'412.6
2018-Feb-17 16:00N 34°02' E 134°54'612.6
2018-Feb-17 15:30N 34°08' E 134°56'612.6
2018-Feb-17 15:00N 34°14' E 134°58'612.2
2018-Feb-17 14:30N 34°20' E 134°59'612.4
2018-Feb-17 14:00N 34°27' E 135°00'611.9
2018-Feb-17 13:30N 34°32' E 135°02'4 8.8
2018-Feb-17 13:00N 34°37' E 135°01'5 9.7
2018-Feb-17 12:30N 34°36' E 134°55'510.4
2018-Feb-17 12:00N 34°39' E 134°50'3 6.4
2018-Feb-17 11:30N 34°43' E 134°50'0 0.0
2018-Feb-17 11:00N 34°43' E 134°50'0 0.0
2018-Feb-17 10:29N 34°43' E 134°50'0 0.0
2018-Feb-17 10:00N 34°43' E 134°50'0 0.0
2018-Feb-17 09:26N 34°43' E 134°50'0 0.0
2018-Feb-17 08:59N 34°43' E 134°50'0 0.0
2018-Feb-17 08:30N 34°43' E 134°50'0 0.0
2018-Feb-17 08:00N 34°43' E 134°50'0 0.0
2018-Feb-17 07:29N 34°43' E 134°50'0 0.0
2018-Feb-17 06:57N 34°43' E 134°50'0 0.0
2018-Feb-17 06:27N 34°43' E 134°50'0 0.0
2018-Feb-17 05:59N 34°43' E 134°50'0 0.0
2018-Feb-17 05:24N 34°43' E 134°50'0 0.0
2018-Feb-17 04:58N 34°43' E 134°50'0 0.0
2018-Feb-17 04:30N 34°43' E 134°50'0 0.0
2018-Feb-17 04:00N 34°43' E 134°50'0 0.0
2018-Feb-17 03:30N 34°43' E 134°50'0 0.0
2018-Feb-17 03:00N 34°43' E 134°50'0 0.0
2018-Feb-17 02:30N 34°43' E 134°50'0 0.0
2018-Feb-17 02:00N 34°43' E 134°50'0 0.0
2018-Feb-17 01:28N 34°43' E 134°50'0 0.0
2018-Feb-17 00:56N 34°43' E 134°50'0 0.0
2018-Feb-17 00:29N 34°43' E 134°50'0 0.0
2018-Feb-16 23:59N 34°43' E 134°50'0 0.1
2018-Feb-16 23:30N 34°43' E 134°50'4 7.4
2018-Feb-16 23:00N 34°39' E 134°51'612.3
2018-Feb-16 22:31N 34°38' E 134°58'612.2
2018-Feb-16 22:00N 34°35' E 135°05'611.8
2018-Feb-16 21:30N 34°29' E 135°03'611.8
2018-Feb-16 21:00N 34°24' E 135°02'611.6
2018-Feb-16 20:30N 34°18' E 134°59'510.2
2018-Feb-16 20:00N 34°13' E 134°60'510.1
2018-Feb-16 19:30N 34°08' E 134°60'510.6
2018-Feb-16 19:00N 34°03' E 134°58'610.9
2018-Feb-16 18:30N 33°58' E 134°55'611.2
2018-Feb-16 18:00N 33°53' E 134°53'610.4
2018-Feb-16 17:24N 33°47' E 134°48'3 0.2
2018-Feb-15 19:21N 33°50' E 134°51'712.6
2018-Feb-15 18:46N 33°57' E 134°52'312.6
2018-Feb-15 18:30N 34°01' E 134°54'612.6
2018-Feb-15 18:00N 34°07' E 134°55'713.2
2018-Feb-15 17:30N 34°13' E 134°57'714.2
2018-Feb-15 17:00N 34°20' E 134°59'713.0
2018-Feb-15 16:30N 34°27' E 135°01'713.1
2018-Feb-15 16:00N 34°33' E 135°02'610.9
2018-Feb-15 15:30N 34°37' E 134°57'613.3
2018-Feb-15 15:00N 34°40' E 134°50'3 1.0
2018-Feb-15 12:07N 34°43' E 134°50'0 0.0
2018-Feb-15 11:51N 34°43' E 134°50'0 0.0
2018-Feb-15 11:29N 34°43' E 134°50'0 0.0
2018-Feb-15 11:00N 34°43' E 134°50'0 0.0
2018-Feb-15 10:30N 34°43' E 134°50'0 0.0
2018-Feb-15 09:45N 34°43' E 134°50'0 0.0
2018-Feb-14 22:38N 34°43' E 134°50'0 0.0
2018-Feb-14 22:30N 34°43' E 134°50'0 0.0
2018-Feb-14 22:00N 34°43' E 134°50'0 0.0
2018-Feb-14 21:30N 34°43' E 134°50'0 0.0
2018-Feb-14 21:00N 34°43' E 134°50'0 0.0
2018-Feb-14 20:29N 34°43' E 134°50'0 0.4
2018-Feb-14 20:00N 34°42' E 134°50'3 5.7
2018-Feb-14 19:30N 34°40' E 134°48'611.3
2018-Feb-14 19:00N 34°37' E 134°42'611.8
2018-Feb-14 18:30N 34°34' E 134°36'611.5
2018-Feb-14 18:00N 34°30' E 134°30'611.5
2018-Feb-14 17:30N 34°27' E 134°25'611.8
2018-Feb-14 17:00N 34°25' E 134°18'712.3
2018-Feb-14 16:26N 34°25' E 134°10'7411.5
2018-Feb-14 10:02N 34°02' E 132°45'012.2
2018-Feb-14 10:00N 34°01' E 132°45'611.9
2018-Feb-14 09:30N 33°56' E 132°41'612.1
2018-Feb-14 08:59N 33°52' E 132°35'3810.5
2018-Feb-14 05:23N 33°44' E 131°51'411.2
2018-Feb-14 05:00N 33°45' E 131°46'611.5
2018-Feb-14 04:30N 33°46' E 131°39'611.6
2018-Feb-14 04:00N 33°48' E 131°33'611.4
2018-Feb-14 03:30N 33°49' E 131°26'611.3
2018-Feb-14 03:00N 33°50' E 131°19'510.8
2018-Feb-14 02:30N 33°53' E 131°14'4 7.9
2018-Feb-14 02:00N 33°56' E 131°12'0 0.0
2018-Feb-14 01:30N 33°56' E 131°12'0 0.0
2018-Feb-14 01:00N 33°56' E 131°12'0 0.0
2018-Feb-14 00:30N 33°56' E 131°12'0 0.0
2018-Feb-14 00:00N 33°56' E 131°12'0 0.0
2018-Feb-13 23:30N 33°56' E 131°12'0 0.0
2018-Feb-13 23:00N 33°56' E 131°12'1 2.3
2018-Feb-13 22:30N 33°55' E 131°12'612.3
2018-Feb-13 22:00N 33°51' E 131°17'612.7
2018-Feb-13 21:30N 33°50' E 131°25'612.7
2018-Feb-13 21:00N 33°50' E 131°32'712.8
2018-Feb-13 20:30N 33°48' E 131°40'712.7
2018-Feb-13 19:57N 33°47' E 131°48'3411.8
2018-Feb-13 17:06N 33°48' E 132°29'213.0
2018-Feb-13 16:57N 33°49' E 132°31'613.1
2018-Feb-13 16:30N 33°54' E 132°36'713.8
2018-Feb-13 16:00N 33°58' E 132°42'1712.4
2018-Feb-13 14:37N 34°10' E 132°57'7211.5
2018-Feb-13 08:23N 34°26' E 134°22'511.8
2018-Feb-13 07:59N 34°28' E 134°27'611.8
2018-Feb-13 07:30N 34°31' E 134°33'611.4
2018-Feb-13 07:00N 34°34' E 134°38'611.4
2018-Feb-13 06:31N 34°37' E 134°44'510.9
2018-Feb-13 06:01N 34°41' E 134°49'2 3.4
2018-Feb-13 05:30N 34°43' E 134°50'0 0.0
2018-Feb-13 04:50N 34°43' E 134°50'0 0.0
2018-Feb-13 04:30N 34°43' E 134°50'0 0.0
2018-Feb-13 04:00N 34°43' E 134°50'0 0.0
2018-Feb-13 03:29N 34°43' E 134°50'0 0.0
2018-Feb-13 02:59N 34°43' E 134°50'0 0.0
2018-Feb-13 02:30N 34°43' E 134°50'0 0.0
2018-Feb-13 02:00N 34°43' E 134°50'0 0.0
2018-Feb-13 01:30N 34°43' E 134°50'0 0.4
2018-Feb-13 01:00N 34°42' E 134°50'0 0.0
2018-Feb-13 00:30N 34°42' E 134°50'0 0.0
2018-Feb-13 00:00N 34°42' E 134°50'0 0.0
2018-Feb-12 23:30N 34°42' E 134°50'0 0.0
2018-Feb-12 23:00N 34°42' E 134°50'0 0.0
2018-Feb-12 22:30N 34°42' E 134°50'0 0.0
2018-Feb-12 22:00N 34°42' E 134°50'0 0.0
2018-Feb-12 21:31N 34°42' E 134°50'0 0.0
2018-Feb-12 21:00N 34°42' E 134°50'0 0.0
2018-Feb-12 20:30N 34°42' E 134°50'0 0.0
2018-Feb-12 20:00N 34°42' E 134°50'0 0.0
2018-Feb-12 19:30N 34°42' E 134°50'0 0.0
2018-Feb-12 19:00N 34°42' E 134°50'0 0.0
2018-Feb-12 18:30N 34°42' E 134°50'0 0.9
2018-Feb-12 18:00N 34°42' E 134°50'611.3
2018-Feb-12 17:30N 34°38' E 134°45'611.9
2018-Feb-12 17:00N 34°35' E 134°39'611.8
2018-Feb-12 16:30N 34°32' E 134°33'611.6
2018-Feb-12 16:00N 34°28' E 134°27'8811.5
2018-Feb-12 08:20N 34°01' E 132°46'412.1
2018-Feb-12 08:00N 33°58' E 132°43'4610.5
2018-Feb-12 03:37N 33°25' E 132°04'2 9.7
2018-Feb-12 03:26N 33°24' E 132°03'4 9.7
2018-Feb-12 03:00N 33°21' E 131°60'5 8.7
2018-Feb-12 02:28N 33°16' E 131°59'510.3
2018-Feb-12 02:00N 33°12' E 131°58'6 1.0
2018-Feb-11 19:57N 33°17' E 131°59'510.8
2018-Feb-11 19:30N 33°22' E 132°01'610.5
2018-Feb-11 18:58N 33°26' E 132°05'1410.9
2018-Feb-11 17:43N 33°36' E 132°17'311.3
2018-Feb-11 17:26N 33°39' E 132°19'611.5
2018-Feb-11 16:55N 33°43' E 132°24'612.1
2018-Feb-11 16:26N 33°47' E 132°29'512.2
2018-Feb-11 16:00N 33°51' E 132°33'612.3
2018-Feb-11 15:30N 33°55' E 132°39'612.5
2018-Feb-11 15:00N 33°60' E 132°44'8610.7
2018-Feb-11 07:00N 34°26' E 134°23'611.4
2018-Feb-11 06:30N 34°29' E 134°28'611.1
2018-Feb-11 06:00N 34°32' E 134°34'510.8
2018-Feb-11 05:30N 34°35' E 134°39'511.0
2018-Feb-11 05:00N 34°38' E 134°45'510.8
2018-Feb-11 04:30N 34°42' E 134°50'  
Track history (hours):
 
Tides and Currents Weather Stations Pressure Air Temp Water Temp Dewpoint Dewpoint Depression Visibility Wind Speed Wind Dir Waves Ship Positions

Dai 8 Tokuharu

Last reported at 2018-Feb-21 04:24 UTC. Time now 2018-Feb-21 17:32 UTC.
Position N 33°51' E 134°51'.

Length 82 m; draft 5 m.

Type: Cargo ship. MMSI: 431005534.

Date/timePositionNaut miles runAvg speedWind from/ knotsBaromVisibWave heightAir tempDewpointWater temp
2018-Feb-21 04:24N 33°51' E 134°51'612.5
2018-Feb-21 03:55N 33°57' E 134°53'512.0
2018-Feb-21 03:30N 34°02' E 134°54'611.7
2018-Feb-21 03:00N 34°08' E 134°55'611.6
2018-Feb-21 02:30N 34°13' E 134°57'510.5
2018-Feb-21 02:00N 34°18' E 134°59'611.1
2018-Feb-21 01:30N 34°23' E 135°02'611.6
2018-Feb-21 01:00N 34°27' E 135°07'612.0
2018-Feb-21 00:30N 34°32' E 135°12'611.7
2018-Feb-21 00:00N 34°36' E 135°17'3 6.9
2018-Feb-20 23:30N 34°39' E 135°19'0 0.0
2018-Feb-20 23:00N 34°39' E 135°19'0 0.0
2018-Feb-20 22:30N 34°39' E 135°19'0 0.0
2018-Feb-20 22:00N 34°39' E 135°19'4 7.8
2018-Feb-20 21:30N 34°37' E 135°15'611.9
2018-Feb-20 21:00N 34°36' E 135°08'612.5
2018-Feb-20 20:31N 34°37' E 135°01'713.9
2018-Feb-20 20:01N 34°38' E 134°52'5 9.7
2018-Feb-20 19:30N 34°43' E 134°50'0 0.0
2018-Feb-20 19:00N 34°43' E 134°50'0 0.0
2018-Feb-20 18:30N 34°43' E 134°50'0 0.0
2018-Feb-20 18:00N 34°43' E 134°50'0 0.0
2018-Feb-20 17:30N 34°43' E 134°50'0 0.0
2018-Feb-20 17:00N 34°43' E 134°50'0 0.0
2018-Feb-20 16:30N 34°43' E 134°50'0 0.0
2018-Feb-20 16:00N 34°43' E 134°50'0 0.0
2018-Feb-20 15:30N 34°43' E 134°50'0 0.0
2018-Feb-20 15:00N 34°43' E 134°50'0 0.0
2018-Feb-20 14:30N 34°43' E 134°50'1 1.3
2018-Feb-20 14:00N 34°42' E 134°50'510.6
2018-Feb-20 13:30N 34°37' E 134°53'713.4
2018-Feb-20 13:00N 34°37' E 135°02'510.5
2018-Feb-20 12:30N 34°32' E 135°04'612.1
2018-Feb-20 12:01N 34°27' E 135°03'612.0
2018-Feb-20 11:30N 34°21' E 135°01'611.6
2018-Feb-20 11:00N 34°15' E 134°59'510.9
2018-Feb-20 10:31N 34°10' E 134°58'611.6
2018-Feb-20 10:00N 34°04' E 134°57'611.3
2018-Feb-20 09:31N 33°59' E 134°55'611.5
2018-Feb-20 09:00N 33°53' E 134°53'510.6
2018-Feb-20 08:30N 33°49' E 134°49'4 0.1
2018-Feb-19 05:38N 33°52' E 134°51'212.8
2018-Feb-19 05:29N 33°53' E 134°52'612.7
2018-Feb-19 05:00N 33°59' E 134°54'612.5
2018-Feb-19 04:30N 34°05' E 134°55'612.6
2018-Feb-19 04:00N 34°12' E 134°57'611.9
2018-Feb-19 03:30N 34°17' E 134°58'510.5
2018-Feb-19 03:00N 34°22' E 134°60'611.5
2018-Feb-19 02:31N 34°28' E 135°02'611.1
2018-Feb-19 02:01N 34°33' E 135°03'4 7.6
2018-Feb-19 01:30N 34°37' E 135°01'5 9.7
2018-Feb-19 01:00N 34°35' E 134°55'510.1
2018-Feb-19 00:31N 34°39' E 134°51'4 7.0
2018-Feb-19 00:00N 34°43' E 134°50'0 0.0
2018-Feb-18 23:29N 34°43' E 134°50'0 0.0
2018-Feb-18 23:00N 34°43' E 134°50'0 0.0
2018-Feb-18 22:30N 34°43' E 134°50'0 0.0
2018-Feb-18 22:00N 34°43' E 134°50'0 0.0
2018-Feb-18 21:30N 34°43' E 134°50'0 0.0
2018-Feb-18 21:00N 34°43' E 134°50'0 0.0
2018-Feb-18 20:30N 34°43' E 134°50'0 0.0
2018-Feb-18 20:01N 34°43' E 134°50'0 0.0
2018-Feb-18 19:30N 34°43' E 134°50'0 0.0
2018-Feb-18 18:59N 34°43' E 134°50'0 0.0
2018-Feb-18 18:30N 34°43' E 134°50'0 0.0
2018-Feb-18 18:00N 34°43' E 134°50'1 2.3
2018-Feb-18 17:30N 34°41' E 134°50'4 8.8
2018-Feb-18 17:00N 34°38' E 134°53'5 9.5
2018-Feb-18 16:30N 34°38' E 134°59'510.1
2018-Feb-18 16:00N 34°36' E 135°04'510.2
2018-Feb-18 15:30N 34°31' E 135°04'611.5
2018-Feb-18 15:00N 34°25' E 135°02'611.3
2018-Feb-18 14:31N 34°20' E 135°00'611.6
2018-Feb-18 14:01N 34°14' E 134°59'611.4
2018-Feb-18 13:30N 34°08' E 134°57'611.2
2018-Feb-18 13:00N 34°03' E 134°56'611.1
2018-Feb-18 12:30N 33°57' E 134°54'511.1
2018-Feb-18 12:00N 33°52' E 134°52'2 0.1
2018-Feb-17 16:56N 33°51' E 134°51'712.9
2018-Feb-17 16:22N 33°58' E 134°53'412.6
2018-Feb-17 16:00N 34°02' E 134°54'612.6
2018-Feb-17 15:30N 34°08' E 134°56'612.6
2018-Feb-17 15:00N 34°14' E 134°58'612.2
2018-Feb-17 14:30N 34°20' E 134°59'612.4
2018-Feb-17 14:00N 34°27' E 135°00'611.9
2018-Feb-17 13:30N 34°32' E 135°02'4 8.8
2018-Feb-17 13:00N 34°37' E 135°01'5 9.7
2018-Feb-17 12:30N 34°36' E 134°55'510.4
2018-Feb-17 12:00N 34°39' E 134°50'3 6.4
2018-Feb-17 11:30N 34°43' E 134°50'0 0.0
2018-Feb-17 11:00N 34°43' E 134°50'0 0.0
2018-Feb-17 10:29N 34°43' E 134°50'0 0.0
2018-Feb-17 10:00N 34°43' E 134°50'0 0.0
2018-Feb-17 09:26N 34°43' E 134°50'0 0.0
2018-Feb-17 08:59N 34°43' E 134°50'0 0.0
2018-Feb-17 08:30N 34°43' E 134°50'0 0.0
2018-Feb-17 08:00N 34°43' E 134°50'0 0.0
2018-Feb-17 07:29N 34°43' E 134°50'0 0.0
2018-Feb-17 06:57N 34°43' E 134°50'0 0.0
2018-Feb-17 06:27N 34°43' E 134°50'0 0.0
2018-Feb-17 05:59N 34°43' E 134°50'0 0.0
2018-Feb-17 05:24N 34°43' E 134°50'0 0.0
2018-Feb-17 04:58N 34°43' E 134°50'0 0.0
2018-Feb-17 04:30N 34°43' E 134°50'0 0.0
2018-Feb-17 04:00N 34°43' E 134°50'0 0.0
2018-Feb-17 03:30N 34°43' E 134°50'0 0.0
2018-Feb-17 03:00N 34°43' E 134°50'0 0.0
2018-Feb-17 02:30N 34°43' E 134°50'0 0.0
2018-Feb-17 02:00N 34°43' E 134°50'0 0.0
2018-Feb-17 01:28N 34°43' E 134°50'0 0.0
2018-Feb-17 00:56N 34°43' E 134°50'0 0.0
2018-Feb-17 00:29N 34°43' E 134°50'0 0.0
2018-Feb-16 23:59N 34°43' E 134°50'0 0.1
2018-Feb-16 23:30N 34°43' E 134°50'4 7.4
2018-Feb-16 23:00N 34°39' E 134°51'612.3
2018-Feb-16 22:31N 34°38' E 134°58'612.2
2018-Feb-16 22:00N 34°35' E 135°05'611.8
2018-Feb-16 21:30N 34°29' E 135°03'611.8
2018-Feb-16 21:00N 34°24' E 135°02'611.6
2018-Feb-16 20:30N 34°18' E 134°59'510.2
2018-Feb-16 20:00N 34°13' E 134°60'510.1
2018-Feb-16 19:30N 34°08' E 134°60'510.6
2018-Feb-16 19:00N 34°03' E 134°58'610.9
2018-Feb-16 18:30N 33°58' E 134°55'611.2
2018-Feb-16 18:00N 33°53' E 134°53'610.4
2018-Feb-16 17:24N 33°47' E 134°48'3 0.2
2018-Feb-15 19:21N 33°50' E 134°51'712.6
2018-Feb-15 18:46N 33°57' E 134°52'312.6
2018-Feb-15 18:30N 34°01' E 134°54'612.6
2018-Feb-15 18:00N 34°07' E 134°55'713.2
2018-Feb-15 17:30N 34°13' E 134°57'714.2
2018-Feb-15 17:00N 34°20' E 134°59'713.0
2018-Feb-15 16:30N 34°27' E 135°01'713.1
2018-Feb-15 16:00N 34°33' E 135°02'610.9
2018-Feb-15 15:30N 34°37' E 134°57'613.3
2018-Feb-15 15:00N 34°40' E 134°50'3 1.0
2018-Feb-15 12:07N 34°43' E 134°50'0 0.0
2018-Feb-15 11:51N 34°43' E 134°50'0 0.0
2018-Feb-15 11:29N 34°43' E 134°50'0 0.0
2018-Feb-15 11:00N 34°43' E 134°50'0 0.0
2018-Feb-15 10:30N 34°43' E 134°50'0 0.0
2018-Feb-15 09:45N 34°43' E 134°50'0 0.0
2018-Feb-14 22:38N 34°43' E 134°50'0 0.0
2018-Feb-14 22:30N 34°43' E 134°50'0 0.0
2018-Feb-14 22:00N 34°43' E 134°50'0 0.0
2018-Feb-14 21:30N 34°43' E 134°50'0 0.0
2018-Feb-14 21:00N 34°43' E 134°50'0 0.0
2018-Feb-14 20:29N 34°43' E 134°50'0 0.4
2018-Feb-14 20:00N 34°42' E 134°50'3 5.7
2018-Feb-14 19:30N 34°40' E 134°48'611.3
2018-Feb-14 19:00N 34°37' E 134°42'611.8
2018-Feb-14 18:30N 34°34' E 134°36'611.5
2018-Feb-14 18:00N 34°30' E 134°30'611.5
2018-Feb-14 17:30N 34°27' E 134°25'611.8
2018-Feb-14 17:00N 34°25' E 134°18'712.3
2018-Feb-14 16:26N 34°25' E 134°10'7411.5
2018-Feb-14 10:02N 34°02' E 132°45'012.2
2018-Feb-14 10:00N 34°01' E 132°45'611.9
2018-Feb-14 09:30N 33°56' E 132°41'612.1
2018-Feb-14 08:59N 33°52' E 132°35'3810.5
2018-Feb-14 05:23N 33°44' E 131°51'411.2
2018-Feb-14 05:00N 33°45' E 131°46'611.5
2018-Feb-14 04:30N 33°46' E 131°39'611.6
2018-Feb-14 04:00N 33°48' E 131°33'611.4
2018-Feb-14 03:30N 33°49' E 131°26'611.3
2018-Feb-14 03:00N 33°50' E 131°19'510.8
2018-Feb-14 02:30N 33°53' E 131°14'4 7.9
2018-Feb-14 02:00N 33°56' E 131°12'0 0.0
2018-Feb-14 01:30N 33°56' E 131°12'0 0.0
2018-Feb-14 01:00N 33°56' E 131°12'0 0.0
2018-Feb-14 00:30N 33°56' E 131°12'0 0.0
2018-Feb-14 00:00N 33°56' E 131°12'0 0.0
2018-Feb-13 23:30N 33°56' E 131°12'0 0.0
2018-Feb-13 23:00N 33°56' E 131°12'1 2.3
2018-Feb-13 22:30N 33°55' E 131°12'612.3
2018-Feb-13 22:00N 33°51' E 131°17'612.7
2018-Feb-13 21:30N 33°50' E 131°25'612.7
2018-Feb-13 21:00N 33°50' E 131°32'712.8
2018-Feb-13 20:30N 33°48' E 131°40'712.7
2018-Feb-13 19:57N 33°47' E 131°48'3411.8
2018-Feb-13 17:06N 33°48' E 132°29'213.0
2018-Feb-13 16:57N 33°49' E 132°31'613.1
2018-Feb-13 16:30N 33°54' E 132°36'713.8
2018-Feb-13 16:00N 33°58' E 132°42'1712.4
2018-Feb-13 14:37N 34°10' E 132°57'7211.5
2018-Feb-13 08:23N 34°26' E 134°22'511.8
2018-Feb-13 07:59N 34°28' E 134°27'611.8
2018-Feb-13 07:30N 34°31' E 134°33'611.4
2018-Feb-13 07:00N 34°34' E 134°38'611.4
2018-Feb-13 06:31N 34°37' E 134°44'510.9
2018-Feb-13 06:01N 34°41' E 134°49'2 3.4
2018-Feb-13 05:30N 34°43' E 134°50'0 0.0
2018-Feb-13 04:50N 34°43' E 134°50'0 0.0
2018-Feb-13 04:30N 34°43' E 134°50'0 0.0
2018-Feb-13 04:00N 34°43' E 134°50'0 0.0
2018-Feb-13 03:29N 34°43' E 134°50'0 0.0
2018-Feb-13 02:59N 34°43' E 134°50'0 0.0
2018-Feb-13 02:30N 34°43' E 134°50'0 0.0
2018-Feb-13 02:00N 34°43' E 134°50'0 0.0
2018-Feb-13 01:30N 34°43' E 134°50'0 0.4
2018-Feb-13 01:00N 34°42' E 134°50'0 0.0
2018-Feb-13 00:30N 34°42' E 134°50'0 0.0
2018-Feb-13 00:00N 34°42' E 134°50'0 0.0
2018-Feb-12 23:30N 34°42' E 134°50'0 0.0
2018-Feb-12 23:00N 34°42' E 134°50'0 0.0
2018-Feb-12 22:30N 34°42' E 134°50'0 0.0
2018-Feb-12 22:00N 34°42' E 134°50'0 0.0
2018-Feb-12 21:31N 34°42' E 134°50'0 0.0
2018-Feb-12 21:00N 34°42' E 134°50'0 0.0
2018-Feb-12 20:30N 34°42' E 134°50'0 0.0
2018-Feb-12 20:00N 34°42' E 134°50'0 0.0
2018-Feb-12 19:30N 34°42' E 134°50'0 0.0
2018-Feb-12 19:00N 34°42' E 134°50'0 0.0
2018-Feb-12 18:30N 34°42' E 134°50'0 0.9
2018-Feb-12 18:00N 34°42' E 134°50'611.3
2018-Feb-12 17:30N 34°38' E 134°45'611.9
2018-Feb-12 17:00N 34°35' E 134°39'611.8
2018-Feb-12 16:30N 34°32' E 134°33'611.6
2018-Feb-12 16:00N 34°28' E 134°27'8811.5
2018-Feb-12 08:20N 34°01' E 132°46'412.1
2018-Feb-12 08:00N 33°58' E 132°43'4610.5
2018-Feb-12 03:37N 33°25' E 132°04'2 9.7
2018-Feb-12 03:26N 33°24' E 132°03'4 9.7
2018-Feb-12 03:00N 33°21' E 131°60'5 8.7
2018-Feb-12 02:28N 33°16' E 131°59'510.3
2018-Feb-12 02:00N 33°12' E 131°58'6 1.0
2018-Feb-11 19:57N 33°17' E 131°59'510.8
2018-Feb-11 19:30N 33°22' E 132°01'610.5
2018-Feb-11 18:58N 33°26' E 132°05'1410.9
2018-Feb-11 17:43N 33°36' E 132°17'311.3
2018-Feb-11 17:26N 33°39' E 132°19'611.5
2018-Feb-11 16:55N 33°43' E 132°24'612.1
2018-Feb-11 16:26N 33°47' E 132°29'512.2
2018-Feb-11 16:00N 33°51' E 132°33'612.3
2018-Feb-11 15:30N 33°55' E 132°39'612.5
2018-Feb-11 15:00N 33°60' E 132°44'8610.7
2018-Feb-11 07:00N 34°26' E 134°23'611.4
2018-Feb-11 06:30N 34°29' E 134°28'611.1
2018-Feb-11 06:00N 34°32' E 134°34'510.8
2018-Feb-11 05:30N 34°35' E 134°39'511.0
2018-Feb-11 05:00N 34°38' E 134°45'510.8
2018-Feb-11 04:30N 34°42' E 134°50'  

Dump ship's entire track history